Time;durP1;ratioP1;P1;durP2;ratioP2;P2;SDS_P1;SDS_P2;PMS_P1;PMS_P2;Temp;Humidity;BMP_temperature;BMP_pressure;BME280_temperature;BME280_humidity;BME280_pressure;Samples;Min_cycle;Max_cycle;Signal;HPM_P1;HPM_P2
2020/12/16 00:01:52;;;;;;;3.67;1.70;;;26.30;69.20;;;;;;4162419;28;20514;-47
2020/12/16 00:03:55;;;;;;;3.50;1.70;;;26.30;69.20;;;;;;4166646;28;20068;-45
2020/12/16 00:05:57;;;;;;;5.07;1.80;;;26.30;69.10;;;;;;4164421;28;20083;-52
2020/12/16 00:07:59;;;;;;;3.00;1.85;;;26.40;69.60;;;;;;4166502;28;20030;-47
2020/12/16 00:10:08;;;;;;;3.25;1.70;;;26.40;69.10;;;;;;4158404;28;20140;-49
2020/12/16 00:12:11;;;;;;;3.63;1.70;;;26.40;69.00;;;;;;4163314;28;20041;-48
2020/12/16 00:14:13;;;;;;;3.57;1.83;;;26.40;68.90;;;;;;4164916;28;20037;-51
2020/12/16 00:16:15;;;;;;;3.10;1.73;;;26.40;69.00;;;;;;4168061;28;20274;-51
2020/12/16 00:18:17;;;;;;;3.50;1.85;;;26.40;69.00;;;;;;4163275;28;20032;-48
2020/12/16 00:20:20;;;;;;;2.72;1.67;;;26.40;68.90;;;;;;4165308;28;20538;-50
2020/12/16 00:22:22;;;;;;;3.13;1.90;;;26.50;68.90;;;;;;4163203;28;20083;-46
2020/12/16 00:24:25;;;;;;;3.38;1.98;;;26.50;68.80;;;;;;4165050;28;20052;-53
2020/12/16 00:26:27;;;;;;;3.40;1.98;;;26.50;68.70;;;;;;4163559;28;20048;-50
2020/12/16 00:28:29;;;;;;;3.25;1.70;;;26.50;68.80;;;;;;4161842;28;20044;-51
2020/12/16 00:30:31;;;;;;;2.65;1.80;;;26.60;68.70;;;;;;4163181;28;20036;-48
2020/12/16 00:32:37;;;;;;;4.35;1.80;;;26.60;68.70;;;;;;4164589;28;20048;-50
2020/12/16 00:34:39;;;;;;;4.03;1.73;;;26.60;68.60;;;;;;4166229;28;20068;-52
2020/12/16 00:36:41;;;;;;;3.88;2.00;;;26.60;68.70;;;;;;4164625;28;20486;-48
2020/12/16 00:38:45;;;;;;;4.20;2.10;;;26.60;68.70;;;;;;4165504;28;20111;-51
2020/12/16 00:40:47;;;;;;;3.08;1.73;;;26.70;68.70;;;;;;4164000;28;20049;-50
2020/12/16 00:42:50;;;;;;;4.32;2.30;;;26.70;68.70;;;;;;4166826;28;20233;-54
2020/12/16 00:44:52;;;;;;;3.13;2.13;;;26.60;68.60;;;;;;4155602;28;20053;-51
2020/12/16 00:46:54;;;;;;;3.88;2.15;;;26.60;68.60;;;;;;4163575;28;20114;-51
2020/12/16 00:48:57;;;;;;;3.50;1.98;;;26.70;68.70;;;;;;4165003;28;20032;-49
2020/12/16 00:50:59;;;;;;;3.60;2.00;;;26.70;68.80;;;;;;4162859;28;20401;-51
2020/12/16 00:53:01;;;;;;;3.72;2.20;;;26.70;68.70;;;;;;4161625;28;20052;-49
2020/12/16 00:55:05;;;;;;;4.55;2.30;;;26.70;68.80;;;;;;4166469;28;20064;-52
2020/12/16 00:57:07;;;;;;;4.47;2.25;;;26.70;68.80;;;;;;4163052;28;20548;-49
2020/12/16 00:59:10;;;;;;;5.75;2.13;;;26.70;68.80;;;;;;4164491;28;20394;-51
2020/12/16 01:01:12;;;;;;;4.30;2.45;;;26.70;68.70;;;;;;4162365;28;20491;-53
2020/12/16 01:03:14;;;;;;;3.83;2.13;;;26.80;69.30;;;;;;4165680;28;20045;-51
2020/12/16 01:05:17;;;;;;;4.03;2.25;;;26.80;68.60;;;;;;4163693;28;20114;-50
2020/12/16 01:07:19;;;;;;;3.30;2.20;;;26.90;68.60;;;;;;4164711;28;22564;-50
2020/12/16 01:09:22;;;;;;;3.97;2.38;;;26.90;68.50;;;;;;4165108;28;20072;-47
2020/12/16 01:11:24;;;;;;;3.40;2.20;;;26.90;68.70;;;;;;4163727;28;20033;-51
2020/12/16 01:13:26;;;;;;;3.92;2.78;;;26.90;68.70;;;;;;4160933;28;20057;-52
2020/12/16 01:15:29;;;;;;;4.25;2.58;;;26.90;68.60;;;;;;4163244;28;20120;-50
2020/12/16 01:17:31;;;;;;;4.85;2.80;;;26.90;68.70;;;;;;4162940;28;20033;-49
2020/12/16 01:19:33;;;;;;;5.07;2.78;;;27.00;68.70;;;;;;4163028;28;20056;-48
2020/12/16 01:21:38;;;;;;;6.03;2.55;;;27.00;68.70;;;;;;4162577;28;20040;-49
2020/12/16 01:23:40;;;;;;;4.70;2.72;;;27.00;68.60;;;;;;4165914;28;20185;-49
2020/12/16 01:25:42;;;;;;;4.57;2.70;;;27.00;68.60;;;;;;4169784;28;20503;-52
2020/12/16 01:27:45;;;;;;;5.22;2.67;;;27.00;68.60;;;;;;4164024;28;20544;-46
2020/12/16 01:29:47;;;;;;;5.47;2.57;;;27.00;68.60;;;;;;4165007;28;20029;-49
2020/12/16 01:31:50;;;;;;;5.53;3.17;;;27.10;68.70;;;;;;4169547;28;20286;-46
2020/12/16 01:33:52;;;;;;;4.72;2.72;;;27.10;68.70;;;;;;4166213;28;20146;-52
2020/12/16 01:35:54;;;;;;;5.05;2.80;;;27.10;68.70;;;;;;4170464;28;20109;-48
2020/12/16 01:37:56;;;;;;;5.72;2.97;;;27.20;68.70;;;;;;4167067;28;20028;-50
2020/12/16 01:39:58;;;;;;;3.90;3.00;;;27.10;68.60;;;;;;4170072;28;20120;-49
2020/12/16 01:42:01;;;;;;;4.50;3.13;;;27.20;68.20;;;;;;4167581;28;20053;-52
2020/12/16 01:44:13;;;;;;;7.10;3.15;;;27.20;68.20;;;;;;4169253;28;20152;-53
2020/12/16 01:46:15;;;;;;;3.80;2.20;;;27.20;68.10;;;;;;4162590;28;20401;-51
2020/12/16 01:48:17;;;;;;;3.90;2.50;;;27.20;68.00;;;;;;4171339;28;20514;-50
2020/12/16 01:50:20;;;;;;;3.38;2.20;;;27.30;67.90;;;;;;4167737;28;20056;-52
2020/12/16 01:52:23;;;;;;;3.70;2.42;;;27.30;67.90;;;;;;4165254;28;20445;-53
2020/12/16 01:54:26;;;;;;;4.00;2.53;;;27.30;67.70;;;;;;4165299;28;20128;-51
2020/12/16 01:56:29;;;;;;;4.47;2.83;;;27.40;67.60;;;;;;4163258;28;20746;-53
2020/12/16 01:58:32;;;;;;;;;;;27.40;67.50;;;;;;4171390;28;20347;-48
2020/12/16 02:00:36;;;;;;;5.13;2.60;;;27.40;67.50;;;;;;4156834;28;20066;-49
2020/12/16 02:03:00;;;;;;;4.40;2.42;;;27.50;67.50;;;;;;4169708;28;20073;-53
2020/12/16 02:05:04;;;;;;;3.83;2.60;;;27.50;67.50;;;;;;4166538;28;20182;-47
2020/12/16 02:07:09;;;;;;;;;;;27.50;67.40;;;;;;4169537;28;20153;-53
2020/12/16 02:09:12;;;;;;;4.25;2.45;;;27.50;67.50;;;;;;4164952;28;20118;-51
2020/12/16 02:11:14;;;;;;;5.25;2.40;;;27.50;67.60;;;;;;4169912;28;20029;-53
2020/12/16 02:13:16;;;;;;;3.75;2.13;;;27.50;67.40;;;;;;4168801;28;20445;-49
2020/12/16 02:15:19;;;;;;;3.35;2.17;;;27.60;68.20;;;;;;4164599;28;20021;-48
2020/12/16 02:17:21;;;;;;;4.28;2.35;;;27.60;67.50;;;;;;4166968;28;20112;-52
2020/12/16 02:19:25;;;;;;;3.80;2.38;;;27.60;67.50;;;;;;4164010;28;20040;-49
2020/12/16 02:21:29;;;;;;;4.82;2.30;;;27.60;67.50;;;;;;4165344;28;20039;-48
2020/12/16 02:23:33;;;;;;;3.67;2.30;;;27.60;67.40;;;;;;4167775;28;20033;-52
2020/12/16 02:25:36;;;;;;;4.55;2.45;;;27.60;67.40;;;;;;4166848;28;20056;-46
2020/12/16 02:27:41;;;;;;;3.75;2.22;;;27.60;67.40;;;;;;4160668;28;20044;-52
2020/12/16 02:29:43;;;;;;;4.03;2.42;;;27.70;67.50;;;;;;4168223;28;20048;-49
2020/12/16 02:31:47;;;;;;;3.60;2.20;;;27.70;67.70;;;;;;4168262;28;20029;-53
2020/12/16 02:33:49;;;;;;;4.10;2.28;;;27.70;67.30;;;;;;4170422;28;20472;-49
2020/12/16 02:35:51;;;;;;;3.83;2.15;;;27.70;67.20;;;;;;4164998;28;20435;-50
2020/12/16 02:37:53;;;;;;;4.35;2.25;;;27.80;67.30;;;;;;4164786;28;20033;-50
2020/12/16 02:39:55;;;;;;;3.25;2.00;;;27.80;67.40;;;;;;4166792;28;20061;-47
2020/12/16 02:42:05;;;;;;;3.67;2.20;;;27.80;67.50;;;;;;4167168;28;20048;-48
2020/12/16 02:44:07;;;;;;;3.85;2.40;;;27.80;67.50;;;;;;4164255;28;20822;-51
2020/12/16 02:46:09;;;;;;;3.63;2.35;;;27.80;67.40;;;;;;4164125;28;20033;-50
2020/12/16 02:48:13;;;;;;;3.97;2.20;;;27.90;67.50;;;;;;4169076;28;20029;-50
2020/12/16 02:50:15;;;;;;;4.30;2.33;;;27.90;67.70;;;;;;4164567;28;20036;-51
2020/12/16 02:52:18;;;;;;;3.95;2.60;;;27.90;67.60;;;;;;4161243;28;20037;-51
2020/12/16 02:54:20;;;;;;;5.30;2.43;;;27.90;67.50;;;;;;4167019;28;20025;-51
2020/12/16 02:56:22;;;;;;;4.05;2.28;;;27.90;67.60;;;;;;4170574;28;20846;-52
2020/12/16 02:58:24;;;;;;;4.32;2.20;;;27.90;67.70;;;;;;4165514;28;20523;-49
2020/12/16 03:00:27;;;;;;;3.20;2.20;;;27.90;67.60;;;;;;4163765;28;20063;-52
2020/12/16 03:02:29;;;;;;;4.18;2.10;;;27.90;67.80;;;;;;4168410;28;20387;-48
2020/12/16 03:04:31;;;;;;;4.97;2.58;;;27.90;67.70;;;;;;4164706;28;20289;-50
2020/12/16 03:06:33;;;;;;;4.47;2.38;;;27.90;67.70;;;;;;4165194;28;20041;-51
2020/12/16 03:08:35;;;;;;;2.87;2.00;;;27.90;67.60;;;;;;4169413;28;20036;-50
2020/12/16 03:10:40;;;;;;;4.57;2.75;;;28.00;67.80;;;;;;4161505;28;20122;-46
2020/12/16 03:12:42;;;;;;;5.05;2.67;;;28.00;67.90;;;;;;4169535;28;20033;-49
2020/12/16 03:14:45;;;;;;;4.60;2.35;;;28.00;67.80;;;;;;4164633;28;20032;-50
2020/12/16 03:16:47;;;;;;;3.75;1.88;;;28.00;67.70;;;;;;4164689;28;20041;-48
2020/12/16 03:18:49;;;;;;;5.07;2.22;;;28.00;67.60;;;;;;4163295;28;20036;-47
2020/12/16 03:20:51;;;;;;;3.13;2.10;;;28.00;67.80;;;;;;4164734;28;20029;-51
2020/12/16 03:22:54;;;;;;;4.60;2.80;;;28.00;67.60;;;;;;4173292;28;20086;-51
2020/12/16 03:24:56;;;;;;;4.38;2.38;;;28.10;67.60;;;;;;4173628;28;20032;-48
2020/12/16 03:26:58;;;;;;;5.25;2.63;;;28.10;67.60;;;;;;4174076;28;20033;-46
2020/12/16 03:29:00;;;;;;;4.22;2.58;;;28.10;67.50;;;;;;4172889;28;20029;-49
2020/12/16 03:31:03;;;;;;;5.27;3.00;;;28.10;67.50;;;;;;4178198;28;20071;-46
2020/12/16 03:33:05;;;;;;;3.78;2.30;;;28.20;67.60;;;;;;4166307;28;20281;-49
2020/12/16 03:35:07;;;;;;;5.75;2.58;;;28.20;67.70;;;;;;4178552;28;20025;-47
2020/12/16 03:37:09;;;;;;;3.05;2.05;;;28.20;67.70;;;;;;4166503;28;20040;-48
2020/12/16 03:39:11;;;;;;;4.93;2.33;;;28.20;67.60;;;;;;4165755;28;20029;-50
2020/12/16 03:41:17;;;;;;;4.88;2.30;;;28.20;67.70;;;;;;4159241;28;20028;-51
2020/12/16 03:43:19;;;;;;;4.65;2.60;;;28.20;67.70;;;;;;4165369;28;20408;-50
2020/12/16 03:45:21;;;;;;;4.43;2.47;;;28.20;67.80;;;;;;4168988;28;20032;-51
2020/12/16 03:47:23;;;;;;;5.47;2.20;;;28.20;67.60;;;;;;4167728;28;20154;-51
2020/12/16 03:49:26;;;;;;;3.88;2.20;;;28.20;67.40;;;;;;4167070;28;20037;-47
2020/12/16 03:51:28;;;;;;;3.67;2.03;;;28.20;67.30;;;;;;4164166;28;20040;-53
2020/12/16 03:53:30;;;;;;;5.82;2.53;;;28.20;67.30;;;;;;4164832;28;20101;-53
2020/12/16 03:55:32;;;;;;;2.75;1.80;;;28.20;67.30;;;;;;4162477;28;20056;-51
2020/12/16 03:57:34;;;;;;;5.25;2.70;;;28.20;67.40;;;;;;4161802;28;21106;-50
2020/12/16 03:59:36;;;;;;;6.60;2.47;;;28.30;67.30;;;;;;4160695;28;20087;-50
2020/12/16 04:01:38;;;;;;;4.95;2.50;;;28.30;67.30;;;;;;4165990;28;20565;-50
2020/12/16 04:03:41;;;;;;;5.78;2.25;;;28.30;67.20;;;;;;4152440;28;20493;-53
2020/12/16 04:05:43;;;;;;;4.15;2.30;;;28.30;67.00;;;;;;4175401;28;20079;-50
2020/12/16 04:07:46;;;;;;;4.68;2.30;;;28.30;67.10;;;;;;4164756;28;20084;-51
2020/12/16 04:09:48;;;;;;;4.10;2.45;;;28.30;67.10;;;;;;4165295;28;20045;-53
2020/12/16 04:11:50;;;;;;;5.05;2.47;;;28.30;67.00;;;;;;4164066;28;20041;-49
2020/12/16 04:13:52;;;;;;;6.85;2.80;;;28.30;67.00;;;;;;4163890;28;20071;-50
2020/12/16 04:15:54;;;;;;;5.43;2.22;;;28.40;67.00;;;;;;4163225;28;20219;-49
2020/12/16 04:17:56;;;;;;;5.13;2.63;;;28.40;67.00;;;;;;4168090;28;20060;-53
2020/12/16 04:19:59;;;;;;;4.32;2.50;;;28.50;67.00;;;;;;4162244;28;20061;-52
2020/12/16 04:22:01;;;;;;;4.40;2.75;;;28.50;66.90;;;;;;4164881;28;20246;-52
2020/12/16 04:24:04;;;;;;;4.68;2.63;;;28.50;66.80;;;;;;4164107;28;20029;-50
2020/12/16 04:26:06;;;;;;;5.55;2.78;;;28.60;66.80;;;;;;4167647;28;20048;-51
2020/12/16 04:28:09;;;;;;;4.10;2.25;;;28.60;66.70;;;;;;4160182;28;20353;-46
2020/12/16 04:30:11;;;;;;;4.20;2.50;;;28.70;67.20;;;;;;4158347;28;20025;-48
2020/12/16 04:32:16;;;;;;;4.75;2.72;;;28.70;66.40;;;;;;4162554;28;20277;-54
2020/12/16 04:34:18;;;;;;;5.25;2.42;;;28.80;66.30;;;;;;4162199;28;20514;-52
2020/12/16 04:36:21;;;;;;;5.63;2.65;;;28.80;66.30;;;;;;4166151;28;20028;-53
2020/12/16 04:38:23;;;;;;;5.50;2.50;;;28.80;66.30;;;;;;4163405;28;20494;-51
2020/12/16 04:40:25;;;;;;;5.50;2.38;;;28.80;66.30;;;;;;4163943;28;20151;-51
2020/12/16 04:42:27;;;;;;;6.38;3.30;;;28.80;66.40;;;;;;4163857;28;20060;-52
2020/12/16 04:44:30;;;;;;;4.03;2.40;;;28.80;66.40;;;;;;4162945;28;20033;-47
2020/12/16 04:46:37;;;;;;;4.55;2.47;;;28.80;66.50;;;;;;4165021;28;20106;-51
2020/12/16 04:48:40;;;;;;;5.20;2.58;;;28.80;66.40;;;;;;4164951;28;20356;-47
2020/12/16 04:50:45;;;;;;;5.88;2.70;;;28.80;66.90;;;;;;4164335;28;20047;-52
2020/12/16 04:52:50;;;;;;;4.47;2.50;;;28.80;66.30;;;;;;4165400;28;20132;-50
2020/12/16 04:54:52;;;;;;;6.93;2.63;;;28.90;66.20;;;;;;4164333;28;20044;-51
2020/12/16 04:56:58;;;;;;;5.53;2.50;;;28.90;66.00;;;;;;4164882;28;20482;-49
2020/12/16 04:59:00;;;;;;;4.57;2.45;;;28.90;66.00;;;;;;4157978;28;20099;-53
2020/12/16 05:01:03;;;;;;;4.80;2.58;;;28.90;66.10;;;;;;4161170;28;20074;-48
2020/12/16 05:03:08;;;;;;;6.10;2.80;;;28.90;66.00;;;;;;4165950;28;20130;-51
2020/12/16 05:05:10;;;;;;;6.57;2.53;;;28.90;66.10;;;;;;4167108;28;20701;-51
2020/12/16 05:07:28;;;;;;;7.60;2.70;;;28.90;66.20;;;;;;4165311;28;20859;-52
2020/12/16 05:09:30;;;;;;;5.10;2.53;;;28.80;66.10;;;;;;4163485;28;20045;-52
2020/12/16 05:11:46;;;;;;;5.75;2.92;;;28.80;66.20;;;;;;4168125;28;20083;-52
2020/12/16 05:13:48;;;;;;;4.43;2.28;;;28.80;66.20;;;;;;4158309;28;20094;-50
2020/12/16 05:15:50;;;;;;;5.93;2.35;;;28.80;66.20;;;;;;4161040;28;20075;-53
2020/12/16 05:18:15;;;;;;;4.43;2.63;;;28.80;66.20;;;;;;4161934;28;20283;-50
2020/12/16 05:20:17;;;;;;;6.35;2.70;;;28.80;66.10;;;;;;4163801;28;20045;-53
2020/12/16 05:22:29;;;;;;;5.13;2.60;;;28.80;66.10;;;;;;4165064;28;20045;-48
2020/12/16 05:24:31;;;;;;;6.25;2.78;;;28.80;66.10;;;;;;4164302;28;20041;-50
2020/12/16 05:26:34;;;;;;;5.90;2.37;;;28.80;66.10;;;;;;4160241;28;20166;-49
2020/12/16 05:28:40;;;;;;;4.35;2.20;;;28.80;66.10;;;;;;4158914;28;20037;-53
2020/12/16 05:30:55;;;;;;;6.68;2.72;;;28.80;66.10;;;;;;4161884;28;20364;-46
2020/12/16 05:33:02;;;;;;;5.78;2.47;;;28.80;66.10;;;;;;4164579;28;20574;-50
2020/12/16 05:35:26;;;;;;;4.97;2.40;;;28.80;66.00;;;;;;4164709;28;20046;-49
2020/12/16 05:37:34;;;;;;;6.07;2.50;;;28.70;66.00;;;;;;4162710;28;20047;-49
2020/12/16 05:39:36;;;;;;;6.00;2.42;;;28.70;66.00;;;;;;4159580;28;20052;-46
2020/12/16 05:41:39;;;;;;;5.82;2.50;;;28.70;65.90;;;;;;4163614;28;20031;-48
2020/12/16 05:43:41;;;;;;;6.18;2.58;;;28.70;65.90;;;;;;4161644;28;20045;-50
2020/12/16 05:45:43;;;;;;;6.95;2.95;;;28.70;66.00;;;;;;4167288;28;20037;-50
2020/12/16 05:48:06;;;;;;;6.15;2.45;;;28.70;66.00;;;;;;4163643;28;20541;-50
2020/12/16 05:50:17;;;;;;;5.97;2.55;;;28.70;66.00;;;;;;4157869;28;20103;-49
2020/12/16 05:52:19;;;;;;;6.80;2.83;;;28.70;66.00;;;;;;4161848;28;20103;-54
2020/12/16 05:54:21;;;;;;;7.68;2.80;;;28.70;65.90;;;;;;4165124;28;20520;-50
2020/12/16 05:56:23;;;;;;;5.93;2.13;;;28.70;65.90;;;;;;4164998;28;20033;-47
2020/12/16 05:58:31;;;;;;;5.80;2.47;;;28.70;66.00;;;;;;4165154;28;20044;-52
2020/12/16 06:00:45;;;;;;;5.72;2.28;;;28.60;65.90;;;;;;4159924;28;22149;-52
2020/12/16 06:02:47;;;;;;;5.63;2.30;;;28.60;65.90;;;;;;4165184;28;20274;-54
2020/12/16 06:04:50;;;;;;;7.35;2.63;;;28.60;65.90;;;;;;4163544;28;20087;-53
2020/12/16 06:06:53;;;;;;;7.18;2.63;;;28.60;65.90;;;;;;4163910;28;20029;-54
2020/12/16 06:08:58;;;;;;;4.65;2.22;;;28.70;65.90;;;;;;4165571;28;20029;-53
2020/12/16 06:11:01;;;;;;;5.35;2.35;;;28.70;65.90;;;;;;4164054;28;20037;-53
2020/12/16 06:13:12;;;;;;;6.60;2.67;;;28.60;65.90;;;;;;4166867;28;20525;-50
2020/12/16 06:15:15;;;;;;;5.60;2.22;;;28.70;65.90;;;;;;4166140;28;20028;-50
2020/12/16 06:17:18;;;;;;;7.28;2.38;;;28.60;65.90;;;;;;4163584;28;20394;-50
2020/12/16 06:19:27;;;;;;;5.85;2.40;;;28.60;65.80;;;;;;4166131;28;20053;-53
2020/12/16 06:21:30;;;;;;;5.82;2.67;;;28.60;65.90;;;;;;4162654;28;20753;-54
2020/12/16 06:23:45;;;;;;;5.15;2.17;;;28.60;65.90;;;;;;4168851;28;20036;-51
2020/12/16 06:25:51;;;;;;;6.07;2.20;;;28.60;65.90;;;;;;4164491;28;20068;-48
2020/12/16 06:27:53;;;;;;;5.85;2.58;;;28.60;65.90;;;;;;4162064;28;20060;-50
2020/12/16 06:30:01;;;;;;;10.05;3.30;;;28.60;66.00;;;;;;4166339;28;20030;-59
2020/12/16 06:32:08;;;;;;;6.95;2.63;;;28.60;65.90;;;;;;4165021;28;20029;-49
2020/12/16 06:34:15;;;;;;;6.68;2.42;;;28.60;66.00;;;;;;4166876;28;20037;-53
2020/12/16 06:36:19;;;;;;;4.50;2.08;;;28.60;66.10;;;;;;4157635;28;20037;-54
2020/12/16 06:38:23;;;;;;;5.32;2.25;;;28.60;66.00;;;;;;4171011;28;20025;-53
2020/12/16 06:40:45;;;;;;;7.28;2.50;;;28.50;66.00;;;;;;4155416;28;20494;-54
2020/12/16 06:42:47;;;;;;;4.22;2.30;;;28.60;66.10;;;;;;4161436;28;20053;-54
2020/12/16 06:45:09;;;;;;;6.68;2.17;;;28.50;66.10;;;;;;4170885;28;20065;-53
2020/12/16 06:47:25;;;;;;;4.13;1.83;;;28.50;66.10;;;;;;4162930;28;20047;-50
2020/12/16 06:49:38;;;;;;;5.00;2.05;;;28.50;66.20;;;;;;4164567;28;20514;-53
2020/12/16 06:51:45;;;;;;;5.18;1.95;;;28.60;66.20;;;;;;4163350;28;20037;-53
2020/12/16 06:53:49;;;;;;;4.47;2.00;;;28.50;66.10;;;;;;4165267;28;20091;-54
2020/12/16 06:56:07;;;;;;;5.18;1.90;;;28.50;66.00;;;;;;4163660;28;20041;-49
2020/12/16 06:58:09;;;;;;;4.72;2.08;;;28.50;65.90;;;;;;4161628;28;20044;-55
2020/12/16 07:00:19;;;;;;;5.25;2.03;;;28.50;66.00;;;;;;4162412;28;20033;-55
2020/12/16 07:02:25;;;;;;;5.30;2.10;;;28.50;66.00;;;;;;4167608;28;20056;-50
2020/12/16 07:04:36;;;;;;;4.40;2.13;;;28.50;65.90;;;;;;4163061;28;20122;-54
2020/12/16 07:06:44;;;;;;;6.07;2.00;;;28.50;65.90;;;;;;4165437;28;20041;-55
2020/12/16 07:08:46;;;;;;;5.35;2.05;;;28.50;65.80;;;;;;4169822;28;20056;-54
2020/12/16 07:10:49;;;;;;;6.55;2.20;;;28.50;65.90;;;;;;4164589;28;20564;-51
2020/12/16 07:13:09;;;;;;;5.97;2.22;;;28.50;65.90;;;;;;4167793;28;20616;-53
2020/12/16 07:15:11;;;;;;;6.60;2.40;;;28.50;66.00;;;;;;4167082;28;20115;-51
2020/12/16 07:17:13;;;;;;;6.45;2.65;;;28.50;66.00;;;;;;4171135;28;20036;-51
2020/12/16 07:19:25;;;;;;;5.07;2.75;;;28.50;66.10;;;;;;4163223;28;20040;-53
2020/12/16 07:21:31;;;;;;;8.32;2.70;;;28.50;66.00;;;;;;4165677;28;20176;-53
2020/12/16 07:24:01;;;;;;;7.40;2.35;;;28.50;66.10;;;;;;4166152;28;20037;-54
2020/12/16 07:26:03;;;;;;;8.43;2.42;;;28.50;66.10;;;;;;4164610;28;20472;-48
2020/12/16 07:28:06;;;;;;;7.53;2.45;;;28.40;66.00;;;;;;4166325;28;20168;-54
2020/12/16 07:30:08;;;;;;;9.27;2.78;;;28.50;66.20;;;;;;4162716;28;20036;-52
2020/12/16 07:32:12;;;;;;;8.00;3.42;;;28.40;66.10;;;;;;4165710;28;20499;-54
2020/12/16 07:34:14;;;;;;;10.90;2.80;;;28.40;66.10;;;;;;4168387;28;20136;-52
2020/12/16 07:36:18;;;;;;;7.28;2.63;;;28.40;66.30;;;;;;4161684;28;20094;-54
2020/12/16 07:38:20;;;;;;;7.00;2.70;;;28.40;66.20;;;;;;4165720;28;20079;-51
2020/12/16 07:40:22;;;;;;;7.35;2.47;;;28.40;66.20;;;;;;4165668;28;20034;-52
2020/12/16 07:42:29;;;;;;;7.57;2.53;;;28.40;66.40;;;;;;4161333;28;20091;-54
2020/12/16 07:44:31;;;;;;;8.18;2.03;;;28.40;66.40;;;;;;4168685;28;20164;-51
2020/12/16 07:46:33;;;;;;;7.57;2.70;;;28.40;66.40;;;;;;4162691;28;20037;-53
2020/12/16 07:48:36;;;;;;;6.63;2.17;;;28.40;66.40;;;;;;4163246;28;20119;-49
2020/12/16 07:50:38;;;;;;;4.78;1.80;;;28.40;66.40;;;;;;4166830;28;20494;-53
2020/12/16 07:52:41;;;;;;;5.30;2.07;;;28.40;66.40;;;;;;4161550;28;20041;-51
2020/12/16 07:54:44;;;;;;;5.53;2.20;;;28.40;66.30;;;;;;4161129;28;20278;-53
2020/12/16 07:56:50;;;;;;;6.88;2.58;;;28.40;66.30;;;;;;4168815;28;20433;-49
2020/12/16 07:58:52;;;;;;;8.52;3.42;;;28.40;66.40;;;;;;4158356;28;20402;-54
2020/12/16 08:01:06;;;;;;;6.82;2.50;;;28.40;66.30;;;;;;4162420;28;20037;-55
2020/12/16 08:03:08;;;;;;;7.10;2.67;;;28.40;66.30;;;;;;4164406;28;20052;-54
2020/12/16 08:05:15;;;;;;;5.30;2.40;;;28.40;66.40;;;;;;4167029;28;20013;-52
2020/12/16 08:07:19;;;;;;;6.97;2.30;;;28.30;66.30;;;;;;4164348;28;20065;-50
2020/12/16 08:09:22;;;;;;;6.38;2.28;;;28.40;66.30;;;;;;4161964;28;20021;-51
2020/12/16 08:11:27;;;;;;;7.95;2.50;;;28.30;66.20;;;;;;4166518;28;20560;-53
2020/12/16 08:13:29;;;;;;;4.82;2.08;;;28.30;66.20;;;;;;4165347;28;20033;-50
2020/12/16 08:15:31;;;;;;;6.88;2.10;;;28.30;66.20;;;;;;4166480;28;20037;-51
2020/12/16 08:17:41;;;;;;;7.60;2.33;;;28.30;66.20;;;;;;4168711;28;20033;-55
2020/12/16 08:19:43;;;;;;;5.93;2.20;;;28.30;66.20;;;;;;4166104;28;20293;-55
2020/12/16 08:21:49;;;;;;;6.35;2.45;;;28.30;66.30;;;;;;4166031;28;20502;-50
2020/12/16 08:23:53;;;;;;;5.88;2.42;;;28.30;66.30;;;;;;4164424;28;20032;-52
2020/12/16 08:26:03;;;;;;;5.47;2.03;;;28.30;66.30;;;;;;4162211;28;20037;-52
2020/12/16 08:28:05;;;;;;;5.97;2.42;;;28.30;66.30;;;;;;4158820;28;20082;-49
2020/12/16 08:30:08;;;;;;;6.72;2.28;;;28.30;66.30;;;;;;4165382;28;20032;-49
2020/12/16 08:32:17;;;;;;;5.45;2.10;;;28.30;66.30;;;;;;4165798;28;20104;-52
2020/12/16 08:34:21;;;;;;;6.30;2.38;;;28.30;66.50;;;;;;4160495;28;20037;-49
2020/12/16 08:36:26;;;;;;;6.18;2.10;;;28.30;66.50;;;;;;4156104;28;20487;-54
2020/12/16 08:38:32;;;;;;;6.45;3.05;;;28.30;66.50;;;;;;4158477;28;20029;-52
2020/12/16 08:40:40;;;;;;;4.78;2.20;;;28.30;66.60;;;;;;4157358;28;20048;-48
2020/12/16 08:42:42;;;;;;;4.50;2.00;;;28.30;66.50;;;;;;4157017;28;20549;-50
2020/12/16 08:44:44;;;;;;;6.47;2.47;;;28.30;67.20;;;;;;4157128;28;20021;-49
2020/12/16 08:46:46;;;;;;;5.30;2.28;;;28.20;66.50;;;;;;4157903;28;20095;-54
2020/12/16 08:49:01;;;;;;;6.65;2.65;;;28.20;66.60;;;;;;4155773;28;20033;-50
2020/12/16 08:51:06;;;;;;;7.03;2.67;;;28.20;66.50;;;;;;4156649;28;20103;-50
2020/12/16 08:53:10;;;;;;;5.53;2.38;;;28.20;66.50;;;;;;4157551;28;20502;-53
2020/12/16 08:55:17;;;;;;;7.63;2.85;;;28.20;66.50;;;;;;4150940;28;20048;-55
2020/12/16 08:57:20;;;;;;;6.40;2.33;;;28.20;66.50;;;;;;4160894;28;20367;-51
2020/12/16 08:59:30;;;;;;;4.60;2.20;;;28.20;66.50;;;;;;4157958;28;20036;-56
2020/12/16 09:01:33;;;;;;;7.07;2.33;;;28.20;66.50;;;;;;4156784;28;20049;-55
2020/12/16 09:03:41;;;;;;;4.22;2.05;;;28.20;66.50;;;;;;4157123;28;20049;-51
2020/12/16 09:05:44;;;;;;;6.43;2.35;;;28.20;66.50;;;;;;4162231;28;20060;-54
2020/12/16 09:07:47;;;;;;;6.07;2.20;;;28.20;66.50;;;;;;4156672;28;20442;-54
2020/12/16 09:09:49;;;;;;;6.95;2.33;;;28.20;66.50;;;;;;4155787;28;20362;-52
2020/12/16 09:11:51;;;;;;;8.23;2.40;;;28.20;66.50;;;;;;4159047;28;20665;-55
2020/12/16 09:13:59;;;;;;;7.67;2.70;;;28.10;66.50;;;;;;4156864;28;20033;-53
2020/12/16 09:16:01;;;;;;;7.65;2.60;;;28.10;66.50;;;;;;4158190;28;20338;-48
2020/12/16 09:18:04;;;;;;;6.60;2.30;;;28.10;66.60;;;;;;4155054;28;20021;-55
2020/12/16 09:20:12;;;;;;;8.18;2.40;;;28.10;66.60;;;;;;4157386;28;20029;-50
2020/12/16 09:22:14;;;;;;;7.28;2.33;;;28.10;66.60;;;;;;4159438;28;20059;-54
2020/12/16 09:24:21;;;;;;;6.18;2.45;;;28.10;66.60;;;;;;4159178;28;20029;-52
2020/12/16 09:26:55;;;;;;;5.07;2.35;;;28.10;66.60;;;;;;4155944;28;20056;-51
2020/12/16 09:28:57;;;;;;;5.43;2.30;;;28.10;66.70;;;;;;4156407;28;20164;-49
2020/12/16 09:31:15;;;;;;;8.52;2.95;;;28.10;66.60;;;;;;4156271;28;20029;-53
2020/12/16 09:33:17;;;;;;;6.20;2.45;;;28.10;66.60;;;;;;4157494;28;20025;-52
2020/12/16 09:35:19;;;;;;;5.45;2.35;;;28.10;66.70;;;;;;4158649;28;20572;-52
2020/12/16 09:37:24;;;;;;;5.47;2.10;;;28.10;66.70;;;;;;4162474;28;20048;-51
2020/12/16 09:39:26;;;;;;;7.72;2.70;;;28.10;66.70;;;;;;4157839;28;20037;-52
2020/12/16 09:41:29;;;;;;;6.22;2.80;;;28.10;66.70;;;;;;4164175;28;20032;-50
2020/12/16 09:43:41;;;;;;;7.28;2.65;;;28.10;66.80;;;;;;4162116;28;20416;-50
2020/12/16 09:45:43;;;;;;;7.00;2.20;;;28.00;66.70;;;;;;4162307;28;20419;-52
2020/12/16 09:47:50;;;;;;;5.78;2.22;;;28.00;66.80;;;;;;4171351;28;20090;-53
2020/12/16 09:50:03;;;;;;;5.25;2.22;;;28.00;66.70;;;;;;4172219;28;20037;-56
2020/12/16 09:52:05;;;;;;;8.90;2.60;;;28.00;66.70;;;;;;4173759;28;20144;-53
2020/12/16 09:54:07;;;;;;;5.38;2.05;;;28.00;66.80;;;;;;4157235;28;20029;-53
2020/12/16 09:56:25;;;;;;;6.78;2.28;;;28.00;66.90;;;;;;4167205;28;20068;-52
2020/12/16 09:58:38;;;;;;;9.25;2.80;;;28.00;66.90;;;;;;4166788;28;20306;-50
2020/12/16 10:00:41;;;;;;;5.28;2.45;;;28.00;66.90;;;;;;4163924;28;20049;-51
2020/12/16 10:02:43;;;;;;;8.80;2.78;;;28.00;67.00;;;;;;4162517;28;20048;-55
2020/12/16 10:04:46;;;;;;;7.88;2.53;;;28.00;67.10;;;;;;4161490;28;20135;-52
2020/12/16 10:06:48;;;;;;;10.00;2.83;;;28.00;67.10;;;;;;4157081;28;20036;-54
2020/12/16 10:08:50;;;;;;;8.38;2.65;;;28.00;67.10;;;;;;4162236;28;20545;-54
2020/12/16 10:10:52;;;;;;;5.50;1.95;;;27.90;66.90;;;;;;4160583;28;20036;-53
2020/12/16 10:12:55;;;;;;;6.27;2.57;;;27.90;66.90;;;;;;4163438;28;20104;-48
2020/12/16 10:14:57;;;;;;;4.78;2.22;;;27.90;66.90;;;;;;4161321;28;20564;-52
2020/12/16 10:16:59;;;;;;;7.22;2.50;;;27.90;66.90;;;;;;4157943;28;20477;-54
2020/12/16 10:19:01;;;;;;;6.32;2.80;;;27.90;66.90;;;;;;4160857;28;20041;-53
2020/12/16 10:21:04;;;;;;;7.60;2.50;;;27.90;66.90;;;;;;4160678;28;20622;-54
2020/12/16 10:23:06;;;;;;;6.35;2.53;;;27.90;66.90;;;;;;4158993;28;20044;-52
2020/12/16 10:25:09;;;;;;;7.70;2.90;;;27.90;66.90;;;;;;4160758;28;20034;-51
2020/12/16 10:27:11;;;;;;;9.65;2.95;;;27.90;66.90;;;;;;4161326;28;20399;-58
2020/12/16 10:29:16;;;;;;;8.13;2.90;;;27.90;66.90;;;;;;4165433;28;20561;-54
2020/12/16 10:31:18;;;;;;;7.38;2.83;;;27.90;66.80;;;;;;4159701;28;20068;-54
2020/12/16 10:33:20;;;;;;;8.20;2.72;;;27.90;66.80;;;;;;4164712;28;20102;-54
2020/12/16 10:35:24;;;;;;;6.03;2.60;;;27.90;66.90;;;;;;4161736;28;20036;-53
2020/12/16 10:37:27;;;;;;;7.30;2.60;;;27.90;66.80;;;;;;4162397;28;20418;-56
2020/12/16 10:39:29;;;;;;;7.85;2.95;;;27.80;66.70;;;;;;4155931;28;20040;-52
2020/12/16 10:41:31;;;;;;;7.30;2.75;;;27.80;66.70;;;;;;4162022;28;20614;-55
2020/12/16 10:43:33;;;;;;;6.83;2.63;;;27.80;66.70;;;;;;4156111;28;20087;-53
2020/12/16 10:45:35;;;;;;;6.13;2.53;;;27.80;66.80;;;;;;4159059;28;20075;-51
2020/12/16 10:47:37;;;;;;;10.05;3.80;;;27.80;66.80;;;;;;4160406;28;20032;-54
2020/12/16 10:49:40;;;;;;;9.50;2.95;;;27.80;66.80;;;;;;4156890;28;20341;-54